createdAt,value
2022-11-03T00:03:37.147Z,94518.72
2022-11-03T00:08:39.808Z,94522.50
2022-11-03T00:13:43.314Z,94522.59
2022-11-03T00:18:45.199Z,94512.34
2022-11-03T00:23:47.092Z,94505.84
2022-11-03T00:28:50.871Z,94500.50
2022-11-03T00:33:53.024Z,94506.53
2022-11-03T00:38:55.429Z,94507.31
2022-11-03T00:43:57.593Z,94501.16
2022-11-03T00:48:59.410Z,94488.63
2022-11-03T00:54:03.332Z,94476.69
2022-11-03T00:59:06.556Z,94480.25
2022-11-03T01:04:28.145Z,94479.34
2022-11-03T01:09:34.269Z,94472.72
2022-11-03T01:14:58.049Z,94487.22
2022-11-03T01:19:59.840Z,94495.84
2022-11-03T01:25:04.781Z,94483.56
2022-11-03T01:30:07.430Z,94496.28
2022-11-03T01:35:09.327Z,94474.28
2022-11-03T01:40:11.836Z,94476.84
2022-11-03T01:45:13.872Z,94476.84
2022-11-03T01:50:18.090Z,94470.06
2022-11-03T01:55:20.472Z,94469.41
2022-11-03T02:00:22.552Z,94473.06
2022-11-03T02:05:25.631Z,94461.34
2022-11-03T02:10:27.581Z,94459.44
2022-11-03T02:15:29.694Z,94446.47
2022-11-03T02:20:33.226Z,94441.56
2022-11-03T02:25:42.643Z,94438.88
2022-11-03T02:30:45.825Z,94439.19
2022-11-03T02:36:00.024Z,94430.47
2022-11-03T02:41:04.608Z,94434.25
2022-11-03T02:46:06.742Z,94424.00
2022-11-03T02:51:08.730Z,94403.25
2022-11-03T02:56:18.421Z,94407.84
2022-11-03T03:01:24.111Z,94398.34
2022-11-03T03:06:58.477Z,94389.66
2022-11-03T03:12:02.311Z,94391.31
2022-11-03T03:17:23.129Z,94392.44
2022-11-03T03:22:39.948Z,94393.31
2022-11-03T03:27:49.221Z,94383.84
2022-11-03T03:32:52.100Z,94377.72
2022-11-03T03:37:58.100Z,94371.47
2022-11-03T03:43:02.232Z,94380.94
2022-11-03T03:48:05.350Z,94377.13
2022-11-03T03:53:11.600Z,94372.78
2022-11-03T03:58:14.710Z,94378.03
2022-11-03T04:03:22.778Z,94381.84
2022-11-03T04:08:24.644Z,94377.63
2022-11-03T04:13:45.141Z,94362.25
2022-11-03T04:19:05.968Z,94373.56
2022-11-03T04:24:07.825Z,94373.56
2022-11-03T04:29:11.347Z,94378.28
2022-11-03T04:34:13.463Z,94381.53
2022-11-03T04:39:19.883Z,94375.06
2022-11-03T04:44:21.795Z,94371.81
2022-11-03T04:49:23.906Z,94366.25
2022-11-03T04:54:26.187Z,94383.22
2022-11-03T04:59:28.281Z,94387.94
2022-11-03T05:04:30.064Z,94388.72
2022-11-03T05:09:32.123Z,94383.03
2022-11-03T05:14:34.125Z,94381.03
2022-11-03T05:19:40.310Z,94378.53
2022-11-03T05:24:42.723Z,94374.16
2022-11-03T05:29:44.601Z,94379.53
2022-11-03T05:34:50.249Z,94373.69
2022-11-03T05:39:52.597Z,94381.41
2022-11-03T05:44:54.603Z,94381.72
2022-11-03T05:50:01.442Z,94381.84
2022-11-03T05:55:04.093Z,94378.06
2022-11-03T06:00:20.170Z,94379.97
2022-11-03T06:05:23.590Z,94386.09
2022-11-03T06:10:36.791Z,94391.25
2022-11-03T06:15:39.855Z,94383.91
2022-11-03T06:20:42.042Z,94384.47
2022-11-03T06:25:44.182Z,94380.47
2022-11-03T06:31:06.847Z,94380.59
2022-11-03T06:36:18.649Z,94400.03
2022-11-03T06:41:24.697Z,94400.28
2022-11-03T06:46:26.893Z,94403.97
2022-11-03T06:51:29.867Z,94404.97
2022-11-03T06:56:35.858Z,94426.94
2022-11-03T07:01:37.909Z,94427.41
2022-11-03T07:06:39.937Z,94433.75
2022-11-03T07:11:50.127Z,94430.72
2022-11-03T07:16:58.059Z,94441.44
2022-11-03T07:22:02.178Z,94446.66
2022-11-03T07:27:29.146Z,94457.81
2022-11-03T07:32:33.614Z,94455.78
2022-11-03T07:37:35.282Z,94464.50
2022-11-03T07:42:37.112Z,94460.00
2022-11-03T07:47:44.065Z,94477.88
2022-11-03T07:52:45.891Z,94479.56
2022-11-03T07:57:48.362Z,94485.06
2022-11-03T08:02:54.868Z,94486.63
2022-11-03T08:07:56.752Z,94484.50
2022-11-03T08:12:59.107Z,94491.44
2022-11-03T08:18:00.944Z,94500.69
2022-11-03T08:23:24.603Z,94504.72
2022-11-03T08:28:24.955Z,94513.81
2022-11-03T08:38:34.741Z,94515.25
2022-11-03T08:43:37.033Z,94527.31
2022-11-03T08:48:39.167Z,94547.41
2022-11-03T08:53:42.880Z,94555.94
2022-11-03T08:58:44.923Z,94557.69
2022-11-03T09:03:47.223Z,94559.78
2022-11-03T09:14:11.332Z,94560.13
2022-11-03T09:19:13.278Z,94555.31
2022-11-03T09:24:15.263Z,94550.91
2022-11-03T09:29:17.264Z,94553.06
2022-11-03T09:34:19.106Z,94550.06
2022-11-03T09:39:21.009Z,94540.78
2022-11-03T09:44:22.795Z,94521.03
2022-11-03T09:49:24.793Z,94530.91
2022-11-03T09:54:27.461Z,94538.69
2022-11-03T09:59:30.418Z,94540.28
2022-11-03T10:04:32.449Z,94540.72
2022-11-03T10:09:34.493Z,94541.75
2022-11-03T10:14:36.372Z,94534.31
2022-11-03T10:19:38.384Z,94523.84
2022-11-03T10:24:40.224Z,94527.53
2022-11-03T10:29:43.735Z,94532.81
2022-11-03T10:34:49.877Z,94523.66
2022-11-03T10:39:53.442Z,94511.59
2022-11-03T10:45:10.263Z,94502.53
2022-11-03T10:50:23.575Z,94501.09
2022-11-03T10:55:26.043Z,94495.41
2022-11-03T11:05:30.372Z,94485.25
2022-11-03T11:10:32.781Z,94497.69
2022-11-03T11:15:36.298Z,94478.13
2022-11-03T11:20:39.882Z,94467.22
2022-11-03T11:26:10.145Z,94460.66
2022-11-03T11:31:27.392Z,94459.53
2022-11-03T11:36:29.265Z,94443.03
2022-11-03T11:42:08.226Z,94438.69
2022-11-03T11:47:41.103Z,94446.34
2022-11-03T11:52:58.062Z,94446.25
2022-11-03T11:58:02.022Z,94436.19
2022-11-03T12:03:05.808Z,94436.97
2022-11-03T12:08:18.820Z,94440.63
2022-11-03T12:13:51.605Z,94439.56
2022-11-03T12:18:53.769Z,94435.06
2022-11-03T12:23:55.871Z,94430.13
2022-11-03T12:28:57.836Z,94412.44
2022-11-03T12:33:59.679Z,94414.00
2022-11-03T12:39:01.569Z,94413.63
2022-11-03T12:44:03.828Z,94402.78
2022-11-03T12:49:05.863Z,94397.41
2022-11-03T12:54:10.651Z,94385.94
2022-11-03T12:59:12.530Z,94376.88
2022-11-03T13:04:14.625Z,94364.41
2022-11-03T13:09:16.737Z,94369.38
2022-11-03T13:14:18.773Z,94356.88
2022-11-03T13:19:20.946Z,94367.09
2022-11-03T13:24:22.824Z,94364.38
2022-11-03T13:29:24.730Z,94349.09
2022-11-03T13:34:26.835Z,94337.44
2022-11-03T13:39:28.657Z,94335.41
2022-11-03T13:44:30.570Z,94334.16
2022-11-03T14:00:17.073Z,94322.59
2022-11-03T14:05:19.020Z,94312.25
2022-11-03T14:10:20.927Z,94304.94
2022-11-03T14:15:22.760Z,94289.91
2022-11-03T14:20:24.718Z,94275.50
2022-11-03T14:25:26.633Z,94275.75
2022-11-03T14:30:28.809Z,94293.97
2022-11-03T14:35:30.829Z,94308.28
2022-11-03T14:40:51.308Z,94314.59
2022-11-03T14:45:57.367Z,94298.00
2022-11-03T14:51:00.312Z,94299.09
2022-11-03T14:56:02.540Z,94289.94
2022-11-03T15:01:05.234Z,94291.88
2022-11-03T15:06:08.177Z,94287.41
2022-11-03T15:11:10.716Z,94294.53
2022-11-03T15:16:12.914Z,94282.44
2022-11-03T15:21:15.049Z,94284.03
2022-11-03T15:26:17.069Z,94281.16
2022-11-03T15:31:18.878Z,94287.31
2022-11-03T15:36:21.245Z,94276.50
2022-11-03T15:41:23.198Z,94278.59
2022-11-03T15:46:26.057Z,94266.22
2022-11-03T15:51:28.291Z,94287.88
2022-11-03T15:56:30.395Z,94284.53
2022-11-03T16:01:32.353Z,94287.78
2022-11-03T16:07:01.497Z,94295.97
2022-11-03T16:11:57.549Z,94294.66
2022-11-03T16:16:59.970Z,94292.53
2022-11-03T16:22:01.906Z,94292.81
2022-11-03T16:27:04.515Z,94295.13
2022-11-03T16:32:06.873Z,94303.56
2022-11-03T16:37:09.787Z,94305.47
2022-11-03T16:42:11.570Z,94301.91
2022-11-03T16:47:13.501Z,94292.97
2022-11-03T16:52:15.437Z,94291.31
2022-11-03T16:57:17.524Z,94290.44
2022-11-03T17:02:19.407Z,94309.59
2022-11-03T17:07:21.355Z,94317.03
2022-11-03T17:12:23.178Z,94328.75
2022-11-03T17:17:25.018Z,94322.22
2022-11-03T17:22:27.355Z,94340.44
2022-11-03T17:27:42.191Z,94343.69
2022-11-03T17:32:44.782Z,94352.81
2022-11-03T17:37:46.676Z,94360.22
2022-11-03T17:42:49.682Z,94354.75
2022-11-03T17:47:52.015Z,94378.56
2022-11-03T17:52:54.086Z,94375.19
2022-11-03T17:57:58.447Z,94372.59
2022-11-03T18:03:00.459Z,94373.50
2022-11-03T18:08:05.929Z,94375.94
2022-11-03T18:13:18.933Z,94379.19
2022-11-03T18:18:38.159Z,94395.75
2022-11-03T18:23:40.069Z,94389.53
2022-11-03T18:28:41.998Z,94387.69
2022-11-03T18:33:44.221Z,94387.88
2022-11-03T18:38:48.545Z,94404.72
2022-11-03T18:43:50.358Z,94392.84
2022-11-03T18:48:52.222Z,94409.78
2022-11-03T18:53:54.263Z,94419.03
2022-11-03T18:58:57.424Z,94418.78
2022-11-03T19:03:59.371Z,94426.16
2022-11-03T19:09:01.980Z,94426.16
2022-11-03T19:14:05.694Z,94412.78
2022-11-03T19:19:11.596Z,94414.09
2022-11-03T19:24:13.515Z,94440.09
2022-11-03T19:29:30.181Z,94434.28
2022-11-03T19:34:34.821Z,94447.50
2022-11-03T19:39:39.297Z,94438.31
2022-11-03T19:44:41.886Z,94423.59
2022-11-03T19:49:45.418Z,94426.59
2022-11-03T19:54:49.389Z,94422.41
2022-11-03T19:59:59.153Z,94410.41
2022-11-03T20:05:01.478Z,94417.84
2022-11-03T20:10:03.502Z,94425.28
2022-11-03T20:15:22.428Z,94426.72
2022-11-03T20:20:26.810Z,94426.59
2022-11-03T20:25:30.691Z,94413.34
2022-11-03T20:30:35.591Z,94425.47
2022-11-03T20:35:40.412Z,94420.34
2022-11-03T20:40:42.484Z,94439.00
2022-11-03T20:45:44.273Z,94427.38
2022-11-03T20:50:49.419Z,94417.88
2022-11-03T20:55:52.397Z,94450.66
2022-11-03T21:00:54.323Z,94437.16
2022-11-03T21:05:57.370Z,94433.91
2022-11-03T21:11:19.335Z,94448.78
2022-11-03T21:16:40.696Z,94458.38
2022-11-03T21:21:43.707Z,94449.44
2022-11-03T21:26:47.097Z,94462.50
2022-11-03T21:31:49.148Z,94472.94
2022-11-03T21:36:51.053Z,94451.72
2022-11-03T21:42:11.702Z,94458.78
2022-11-03T21:47:13.584Z,94461.44
2022-11-03T21:52:17.974Z,94459.88
2022-11-03T21:57:19.825Z,94463.06
2022-11-03T22:02:22.103Z,94451.81
2022-11-03T22:07:24.190Z,94472.53
2022-11-03T22:12:26.033Z,94458.56
2022-11-03T22:17:28.472Z,94463.72
2022-11-03T22:22:49.283Z,94467.31
2022-11-03T22:27:51.539Z,94465.75
2022-11-03T22:32:55.168Z,94477.03
2022-11-03T22:38:14.276Z,94471.34
2022-11-03T22:43:34.776Z,94482.84
2022-11-03T22:48:37.120Z,94475.13
2022-11-03T22:53:58.455Z,94475.25
2022-11-03T22:59:00.412Z,94467.31
2022-11-03T23:04:02.882Z,94456.34
2022-11-03T23:09:05.313Z,94468.94
2022-11-03T23:14:11.809Z,94471.16
2022-11-03T23:19:34.039Z,94465.59
2022-11-03T23:24:54.587Z,94464.50
2022-11-03T23:29:56.838Z,94452.69
2022-11-03T23:34:59.220Z,94459.34
2022-11-03T23:40:01.186Z,94467.56
2022-11-03T23:45:21.757Z,94463.47
2022-11-03T23:50:23.670Z,94461.00
2022-11-03T23:55:25.793Z,94451.13
